createdAt,value
2022-08-31T00:03:03.368Z,60.31
2022-08-31T00:05:29.692Z,59.93
2022-08-31T00:07:56.025Z,59.66
2022-08-31T00:10:32.373Z,60.28
2022-08-31T00:13:01.183Z,60.12
2022-08-31T00:15:29.877Z,60.28
2022-08-31T00:17:57.227Z,60.48
2022-08-31T00:23:13.843Z,60.62
2022-08-31T00:25:43.980Z,60.85
2022-08-31T00:28:13.396Z,60.34
2022-08-31T00:30:41.523Z,60.68
2022-08-31T00:33:09.356Z,60.54
2022-08-31T00:35:37.835Z,61.23
2022-08-31T00:38:06.725Z,61.66
2022-08-31T00:40:44.254Z,61.75
2022-08-31T00:43:12.629Z,61.95
2022-08-31T00:45:40.381Z,62.04
2022-08-31T00:48:08.146Z,62.11
2022-08-31T00:50:36.003Z,61.86
2022-08-31T00:53:03.872Z,61.96
2022-08-31T00:55:34.899Z,62.34
2022-08-31T00:58:07.515Z,62.14
2022-08-31T01:00:36.225Z,62.24
2022-08-31T01:03:07.723Z,62.20
2022-08-31T01:05:36.657Z,62.70
2022-08-31T01:08:06.322Z,62.97
2022-08-31T01:10:37.802Z,62.78
2022-08-31T01:13:08.875Z,62.56
2022-08-31T01:15:38.681Z,62.76
2022-08-31T01:18:08.356Z,62.84
2022-08-31T01:20:48.679Z,62.73
2022-08-31T01:23:22.428Z,63.06
2022-08-31T01:25:53.412Z,62.61
2022-08-31T01:28:21.124Z,62.44
2022-08-31T01:31:00.572Z,62.91
2022-08-31T01:33:28.504Z,62.91
2022-08-31T01:35:56.626Z,62.63
2022-08-31T01:38:26.110Z,62.63
2022-08-31T01:40:56.220Z,62.62
2022-08-31T01:48:26.199Z,63.00
2022-08-31T01:50:52.564Z,62.79
2022-08-31T01:53:19.498Z,63.11
2022-08-31T01:55:46.265Z,63.13
2022-08-31T01:58:13.322Z,63.07
2022-08-31T02:00:40.676Z,63.26
2022-08-31T02:03:07.642Z,63.74
2022-08-31T02:13:19.436Z,63.36
2022-08-31T02:15:45.870Z,62.89
2022-08-31T02:18:12.290Z,63.33
2022-08-31T02:20:38.674Z,63.27
2022-08-31T02:23:04.984Z,63.31
2022-08-31T02:25:31.573Z,63.50
2022-08-31T02:27:58.079Z,63.86
2022-08-31T02:30:25.867Z,64.14
2022-08-31T02:37:54.951Z,63.99
2022-08-31T02:40:21.920Z,63.76
2022-08-31T02:42:53.013Z,63.58
2022-08-31T02:45:22.114Z,63.83
2022-08-31T02:47:49.739Z,63.80
2022-08-31T02:50:17.607Z,64.19
2022-08-31T02:52:46.396Z,64.23
2022-08-31T02:55:15.914Z,64.65
2022-08-31T02:57:43.576Z,64.75
2022-08-31T03:00:12.548Z,64.59
2022-08-31T03:02:41.470Z,64.76
2022-08-31T03:05:10.272Z,64.71
2022-08-31T03:07:39.136Z,64.94
2022-08-31T03:10:09.597Z,65.01
2022-08-31T03:12:39.445Z,65.19
2022-08-31T03:15:09.329Z,65.36
2022-08-31T03:17:37.234Z,65.15
2022-08-31T03:20:06.510Z,64.95
2022-08-31T03:22:34.836Z,65.01
2022-08-31T03:25:05.618Z,65.28
2022-08-31T03:27:34.002Z,65.28
2022-08-31T03:30:03.078Z,65.24
2022-08-31T03:32:31.763Z,65.22
2022-08-31T03:35:01.074Z,65.17
2022-08-31T03:37:28.986Z,64.52
2022-08-31T03:39:56.955Z,64.77
2022-08-31T03:42:25.310Z,64.83
2022-08-31T03:44:55.350Z,64.80
2022-08-31T03:47:24.494Z,64.48
2022-08-31T03:49:56.280Z,64.80
2022-08-31T03:52:23.992Z,65.16
2022-08-31T03:54:51.767Z,64.73
2022-08-31T03:57:19.475Z,65.05
2022-08-31T03:59:47.167Z,65.11
2022-08-31T04:02:14.948Z,65.20
2022-08-31T04:04:44.052Z,65.28
2022-08-31T04:07:11.690Z,65.41
2022-08-31T04:09:39.420Z,65.69
2022-08-31T04:12:07.372Z,65.61
2022-08-31T04:14:35.084Z,65.67
2022-08-31T04:17:02.819Z,65.67
2022-08-31T04:19:31.573Z,65.70
2022-08-31T04:22:00.751Z,65.75
2022-08-31T04:24:29.405Z,65.50
2022-08-31T04:26:57.198Z,65.62
2022-08-31T04:29:24.930Z,65.58
2022-08-31T04:31:52.627Z,65.15
2022-08-31T04:34:20.365Z,65.13
2022-08-31T04:36:48.133Z,64.33
2022-08-31T04:39:19.379Z,65.14
2022-08-31T04:41:47.222Z,65.14
2022-08-31T04:44:19.763Z,65.43
2022-08-31T04:46:47.998Z,65.15
2022-08-31T04:49:15.675Z,65.35
2022-08-31T04:51:45.219Z,65.78
2022-08-31T04:54:15.156Z,66.15
2022-08-31T04:56:46.304Z,66.50
2022-08-31T04:59:17.269Z,66.51
2022-08-31T05:01:46.530Z,66.67
2022-08-31T05:04:16.329Z,65.80
2022-08-31T05:06:46.247Z,66.52
2022-08-31T05:09:17.578Z,66.83
2022-08-31T05:11:47.447Z,66.81
2022-08-31T05:14:15.487Z,67.27
2022-08-31T05:16:44.296Z,67.08
2022-08-31T05:19:12.218Z,67.16
2022-08-31T05:21:42.153Z,67.18
2022-08-31T05:24:13.022Z,67.13
2022-08-31T05:26:44.423Z,67.26
2022-08-31T05:29:15.172Z,67.08
2022-08-31T05:31:47.168Z,67.18
2022-08-31T05:34:17.790Z,67.19
2022-08-31T05:36:47.292Z,67.28
2022-08-31T05:39:14.973Z,67.21
2022-08-31T05:41:44.609Z,67.18
2022-08-31T05:44:15.070Z,67.11
2022-08-31T05:46:43.660Z,66.93
2022-08-31T05:49:12.227Z,66.89
2022-08-31T05:51:40.290Z,67.28
2022-08-31T05:54:10.689Z,67.12
2022-08-31T05:56:41.154Z,67.44
2022-08-31T05:59:11.174Z,67.28
2022-08-31T06:01:42.482Z,67.48
2022-08-31T06:04:10.599Z,67.76
2022-08-31T06:06:38.868Z,67.32
2022-08-31T06:09:07.664Z,67.31
2022-08-31T06:11:37.354Z,67.26
2022-08-31T06:14:05.841Z,67.53
2022-08-31T06:16:34.130Z,67.35
2022-08-31T06:19:04.658Z,66.73
2022-08-31T06:21:34.619Z,66.92
2022-08-31T06:24:04.570Z,66.84
2022-08-31T06:26:34.606Z,66.61
2022-08-31T06:29:06.331Z,67.08
2022-08-31T06:31:37.408Z,67.11
2022-08-31T06:34:08.214Z,67.01
2022-08-31T06:36:36.478Z,67.09
2022-08-31T06:39:04.455Z,67.20
2022-08-31T06:41:36.784Z,67.70
2022-08-31T06:44:07.900Z,66.66
2022-08-31T06:46:36.971Z,67.49
2022-08-31T06:49:08.558Z,67.52
2022-08-31T06:51:38.199Z,67.69
2022-08-31T06:54:27.881Z,67.66
2022-08-31T06:56:57.835Z,67.55
2022-08-31T06:59:28.880Z,67.83
2022-08-31T07:01:57.985Z,67.95
2022-08-31T07:04:28.068Z,67.66
2022-08-31T07:06:55.795Z,67.64
2022-08-31T07:09:23.844Z,67.46
2022-08-31T07:11:53.530Z,67.62
2022-08-31T07:14:22.934Z,67.40
2022-08-31T07:16:53.278Z,66.35
2022-08-31T07:19:21.951Z,66.66
2022-08-31T07:21:53.583Z,66.64
2022-08-31T07:24:24.534Z,66.73
2022-08-31T07:26:54.507Z,67.13
2022-08-31T07:29:24.138Z,67.20
2022-08-31T07:31:53.000Z,67.16
2022-08-31T07:34:25.782Z,67.25
2022-08-31T07:37:14.731Z,67.16
2022-08-31T07:40:06.244Z,67.12
2022-08-31T07:42:37.970Z,67.26
2022-08-31T07:45:12.140Z,67.43
2022-08-31T07:47:45.994Z,67.13
2022-08-31T07:50:15.137Z,67.28
2022-08-31T07:52:47.407Z,67.20
2022-08-31T07:55:17.963Z,67.28
2022-08-31T07:57:46.100Z,67.24
2022-08-31T08:00:15.466Z,66.92
2022-08-31T08:02:46.323Z,66.75
2022-08-31T08:05:24.462Z,66.40
2022-08-31T08:08:00.124Z,65.92
2022-08-31T08:10:29.967Z,66.00
2022-08-31T08:13:05.419Z,65.99
2022-08-31T08:15:36.141Z,66.10
2022-08-31T08:18:04.780Z,65.22
2022-08-31T08:20:34.646Z,65.00
2022-08-31T08:23:13.889Z,64.09
2022-08-31T08:25:56.762Z,64.13
2022-08-31T08:28:43.120Z,64.76
2022-08-31T08:31:14.277Z,65.04
2022-08-31T08:33:42.291Z,65.14
2022-08-31T08:36:10.002Z,65.82
2022-08-31T08:38:43.698Z,65.44
2022-08-31T08:41:13.970Z,65.43
2022-08-31T08:43:50.092Z,65.93
2022-08-31T08:46:34.882Z,65.86
2022-08-31T08:49:14.292Z,66.11
2022-08-31T08:51:42.791Z,66.14
2022-08-31T08:54:15.935Z,66.42
2022-08-31T08:56:48.894Z,66.53
2022-08-31T08:59:19.882Z,66.24
2022-08-31T09:01:51.095Z,66.49
2022-08-31T09:04:35.772Z,66.00
2022-08-31T09:07:21.050Z,65.98
2022-08-31T09:10:02.262Z,66.08
2022-08-31T09:12:44.748Z,65.06
2022-08-31T09:15:37.256Z,64.92
2022-08-31T09:18:19.105Z,64.55
2022-08-31T09:21:02.332Z,65.00
2022-08-31T09:23:31.634Z,64.99
2022-08-31T09:26:06.243Z,64.83
2022-08-31T09:28:38.905Z,64.98
2022-08-31T09:31:06.809Z,64.48
2022-08-31T09:33:47.434Z,64.86
2022-08-31T09:36:16.889Z,64.81
2022-08-31T09:38:46.888Z,64.71
2022-08-31T09:41:33.306Z,64.80
2022-08-31T09:44:22.749Z,64.88
2022-08-31T09:46:54.324Z,64.54
2022-08-31T09:49:26.137Z,64.40
2022-08-31T09:51:54.888Z,63.83
2022-08-31T09:54:47.765Z,63.04
2022-08-31T09:57:18.570Z,63.67
2022-08-31T09:59:49.347Z,62.99
2022-08-31T10:02:31.757Z,63.09
2022-08-31T10:05:04.238Z,62.99
2022-08-31T10:07:44.403Z,62.05
2022-08-31T10:10:18.803Z,62.05
2022-08-31T10:13:04.441Z,61.89
2022-08-31T10:15:39.323Z,62.09
2022-08-31T10:18:14.130Z,61.62
2022-08-31T10:20:48.345Z,60.68
2022-08-31T10:23:20.787Z,61.13
2022-08-31T10:25:54.654Z,59.42
2022-08-31T10:28:32.074Z,60.47
2022-08-31T10:31:04.214Z,59.69
2022-08-31T10:33:50.748Z,59.64
2022-08-31T10:36:18.694Z,58.18
2022-08-31T10:38:49.427Z,58.07
2022-08-31T10:41:22.281Z,59.52
2022-08-31T10:44:01.487Z,59.38
2022-08-31T10:46:34.504Z,59.51
2022-08-31T10:49:04.379Z,60.14
2022-08-31T10:51:41.439Z,60.69
2022-08-31T10:54:28.729Z,60.72
2022-08-31T10:57:07.695Z,60.51
2022-08-31T10:59:45.938Z,60.94
2022-08-31T11:02:39.556Z,61.08
2022-08-31T11:05:22.900Z,61.45
2022-08-31T11:07:58.053Z,61.25
2022-08-31T11:10:39.949Z,60.89
2022-08-31T11:13:15.164Z,60.43
2022-08-31T11:16:00.033Z,60.19
2022-08-31T11:18:58.782Z,59.96
2022-08-31T11:21:45.118Z,61.20
2022-08-31T11:24:45.942Z,62.62
2022-08-31T11:27:23.612Z,63.72
2022-08-31T11:29:58.134Z,64.36
2022-08-31T11:32:34.553Z,64.91
2022-08-31T11:35:10.104Z,65.40
2022-08-31T11:37:55.868Z,65.61
2022-08-31T11:41:12.037Z,65.59
2022-08-31T11:43:51.947Z,65.12
2022-08-31T11:46:57.439Z,65.53
2022-08-31T11:49:48.212Z,65.93
2022-08-31T11:52:34.511Z,65.66
2022-08-31T11:55:08.911Z,65.27
2022-08-31T11:58:11.171Z,65.93
2022-08-31T12:00:51.878Z,66.32
2022-08-31T12:03:44.122Z,65.82
2022-08-31T12:06:52.922Z,66.55
2022-08-31T12:09:38.174Z,67.38
2022-08-31T12:12:19.663Z,67.10
2022-08-31T12:14:56.659Z,67.39
2022-08-31T12:17:31.745Z,66.73
2022-08-31T12:20:09.144Z,67.06
2022-08-31T12:23:30.281Z,67.26
2022-08-31T12:26:09.367Z,67.64
2022-08-31T12:29:04.053Z,67.96
2022-08-31T12:31:35.631Z,67.53
2022-08-31T12:34:06.817Z,67.37
2022-08-31T12:36:36.915Z,67.13
2022-08-31T12:39:10.907Z,66.88
2022-08-31T12:41:41.892Z,67.60
2022-08-31T12:44:14.285Z,67.37
2022-08-31T12:46:57.664Z,67.07
2022-08-31T12:49:42.681Z,66.95
2022-08-31T12:52:24.207Z,67.04
2022-08-31T12:55:15.182Z,66.98
2022-08-31T12:57:58.731Z,66.38
2022-08-31T13:00:28.732Z,66.33
2022-08-31T13:03:00.305Z,66.56
2022-08-31T13:05:30.766Z,66.96
2022-08-31T13:07:59.743Z,67.43
2022-08-31T13:10:33.659Z,68.09
2022-08-31T13:13:04.476Z,68.07
2022-08-31T13:15:39.310Z,67.92
2022-08-31T13:18:11.768Z,67.92
2022-08-31T13:20:43.312Z,68.51
2022-08-31T13:23:14.630Z,68.56
2022-08-31T13:25:49.683Z,68.77
2022-08-31T13:28:26.138Z,68.89
2022-08-31T13:31:03.270Z,68.63
2022-08-31T13:33:33.126Z,68.26
2022-08-31T13:36:07.940Z,68.25
2022-08-31T13:38:43.313Z,67.75
2022-08-31T13:41:23.695Z,67.93
2022-08-31T13:43:59.019Z,68.08
2022-08-31T13:46:42.288Z,67.98
2022-08-31T13:49:35.267Z,68.34
2022-08-31T13:52:04.172Z,68.98
2022-08-31T13:54:34.332Z,68.88
2022-08-31T13:57:25.870Z,68.93
2022-08-31T13:59:53.727Z,68.67
2022-08-31T14:02:36.703Z,68.95
2022-08-31T14:05:10.376Z,68.36
2022-08-31T14:07:57.041Z,68.67
2022-08-31T14:10:27.337Z,68.89
2022-08-31T14:12:59.654Z,68.98
2022-08-31T14:15:38.530Z,69.96
2022-08-31T14:18:24.621Z,68.99
2022-08-31T14:21:22.849Z,68.01
2022-08-31T14:23:53.647Z,68.26
2022-08-31T14:26:26.418Z,68.45
2022-08-31T14:28:57.533Z,67.81
2022-08-31T14:31:28.607Z,68.41
2022-08-31T14:34:22.122Z,68.67
2022-08-31T14:36:53.815Z,68.84
2022-08-31T14:39:24.301Z,68.78
2022-08-31T14:41:52.996Z,69.11
2022-08-31T14:44:25.404Z,69.39
2022-08-31T14:46:53.085Z,69.07
2022-08-31T14:49:21.323Z,68.67
2022-08-31T14:51:48.995Z,66.66
2022-08-31T14:54:17.908Z,65.83
2022-08-31T14:56:50.409Z,65.84
2022-08-31T14:59:21.666Z,66.96
2022-08-31T15:01:51.196Z,67.58
2022-08-31T15:04:21.837Z,67.50
2022-08-31T15:06:54.941Z,67.62
2022-08-31T15:09:22.916Z,68.12
2022-08-31T15:11:51.375Z,68.24
2022-08-31T15:14:19.348Z,67.69
2022-08-31T15:16:50.776Z,66.97
2022-08-31T15:19:20.014Z,67.35
2022-08-31T15:21:52.763Z,68.15
2022-08-31T15:24:31.091Z,68.42
2022-08-31T15:26:59.867Z,68.00
2022-08-31T15:29:30.497Z,68.16
2022-08-31T15:31:59.712Z,68.27
2022-08-31T15:34:31.131Z,68.38
2022-08-31T15:37:02.175Z,68.67
2022-08-31T15:39:32.657Z,69.51
2022-08-31T15:42:02.603Z,69.76
2022-08-31T15:44:30.364Z,68.97
2022-08-31T15:47:15.446Z,69.79
2022-08-31T15:49:44.585Z,70.25
2022-08-31T15:52:13.009Z,70.25
2022-08-31T15:54:42.113Z,70.03
2022-08-31T15:57:11.166Z,69.49
2022-08-31T15:59:39.824Z,69.34
2022-08-31T16:02:08.574Z,69.87
2022-08-31T16:04:38.456Z,69.84
2022-08-31T16:07:09.260Z,70.14
2022-08-31T16:09:37.398Z,70.26
2022-08-31T16:12:05.434Z,70.35
2022-08-31T16:14:33.317Z,70.01
2022-08-31T16:17:01.360Z,69.58
2022-08-31T16:19:35.434Z,69.84
2022-08-31T16:22:05.681Z,70.50
2022-08-31T16:24:37.258Z,70.75
2022-08-31T16:27:06.272Z,70.29
2022-08-31T16:29:34.574Z,70.53
2022-08-31T16:32:02.381Z,70.86
2022-08-31T16:34:31.435Z,71.36
2022-08-31T16:36:59.858Z,71.81
2022-08-31T16:39:28.377Z,71.65
2022-08-31T16:41:57.597Z,71.01
2022-08-31T16:44:30.203Z,70.31
2022-08-31T16:47:06.616Z,68.98
2022-08-31T16:49:33.606Z,68.19
2022-08-31T16:52:03.359Z,67.71
2022-08-31T16:54:31.529Z,68.11
2022-08-31T16:57:00.986Z,66.77
2022-08-31T16:59:30.291Z,66.17
2022-08-31T17:01:58.226Z,64.79
2022-08-31T17:04:51.132Z,64.46
2022-08-31T17:07:16.443Z,65.58
2022-08-31T17:09:45.146Z,65.81
2022-08-31T17:12:17.081Z,66.40
2022-08-31T17:14:48.183Z,66.67
2022-08-31T17:17:18.110Z,66.79
2022-08-31T17:19:47.628Z,67.00
2022-08-31T17:22:24.540Z,66.98
2022-08-31T17:24:57.347Z,67.60
2022-08-31T17:27:27.887Z,67.25
2022-08-31T17:29:56.430Z,67.88
2022-08-31T17:32:27.630Z,68.07
2022-08-31T17:34:55.810Z,68.06
2022-08-31T17:37:26.837Z,67.98
2022-08-31T17:39:55.954Z,68.39
2022-08-31T17:42:27.942Z,67.67
2022-08-31T17:44:56.818Z,68.42
2022-08-31T17:47:25.810Z,67.34
2022-08-31T17:49:54.104Z,66.82
2022-08-31T17:52:23.141Z,67.34
2022-08-31T17:54:51.648Z,67.67
2022-08-31T17:57:22.362Z,67.28
2022-08-31T17:59:51.623Z,67.92
2022-08-31T18:02:23.037Z,68.73
2022-08-31T18:04:52.277Z,68.82
2022-08-31T18:07:19.953Z,69.03
2022-08-31T18:09:47.933Z,68.90
2022-08-31T18:12:16.866Z,69.21
2022-08-31T18:14:45.274Z,69.29
2022-08-31T18:17:17.097Z,68.60
2022-08-31T18:19:45.724Z,68.17
2022-08-31T18:22:14.795Z,68.47
2022-08-31T18:24:43.877Z,68.37
2022-08-31T18:27:15.120Z,68.32
2022-08-31T18:29:44.079Z,68.15
2022-08-31T18:32:11.739Z,68.23
2022-08-31T18:34:44.968Z,69.00
2022-08-31T18:37:13.755Z,68.66
2022-08-31T18:39:59.709Z,68.98
2022-08-31T18:42:46.822Z,68.93
2022-08-31T18:45:19.195Z,68.42
2022-08-31T18:48:13.504Z,69.03
2022-08-31T18:50:40.101Z,69.03
2022-08-31T18:53:10.707Z,69.14
2022-08-31T18:55:40.779Z,69.14
2022-08-31T18:58:08.532Z,69.11
2022-08-31T19:00:36.394Z,69.34
2022-08-31T19:03:04.340Z,69.56
2022-08-31T19:05:32.572Z,70.49
2022-08-31T19:08:01.618Z,69.52
2022-08-31T19:10:29.456Z,69.65
2022-08-31T19:12:57.122Z,69.99
2022-08-31T19:15:35.977Z,70.03
2022-08-31T19:18:05.091Z,70.52
2022-08-31T19:20:35.638Z,70.42
2022-08-31T19:23:05.048Z,70.86
2022-08-31T19:25:32.886Z,70.23
2022-08-31T19:28:01.595Z,70.52
2022-08-31T19:30:30.182Z,70.46
2022-08-31T19:32:58.046Z,71.02
2022-08-31T19:35:27.499Z,71.41
2022-08-31T19:37:56.066Z,71.62
2022-08-31T19:40:42.992Z,72.30
2022-08-31T19:46:09.669Z,71.89
2022-08-31T19:48:45.147Z,72.22
2022-08-31T19:51:14.190Z,71.86
2022-08-31T19:53:44.535Z,71.13
2022-08-31T19:56:17.615Z,71.62
2022-08-31T19:58:46.930Z,71.92
2022-08-31T20:01:15.170Z,72.18
2022-08-31T20:03:42.831Z,72.17
2022-08-31T20:06:13.327Z,72.04
2022-08-31T20:08:42.070Z,72.32
2022-08-31T20:11:10.862Z,72.19
2022-08-31T20:13:41.177Z,72.40
2022-08-31T20:16:10.218Z,72.22
2022-08-31T20:18:38.275Z,72.26
2022-08-31T20:21:14.062Z,72.38
2022-08-31T20:23:41.820Z,71.81
2022-08-31T20:26:10.612Z,71.71
2022-08-31T20:28:40.642Z,71.76
2022-08-31T20:31:10.834Z,71.58
2022-08-31T20:33:39.201Z,72.08
2022-08-31T20:36:18.741Z,72.00
2022-08-31T20:38:47.245Z,72.25
2022-08-31T20:41:15.097Z,71.02
2022-08-31T20:43:44.655Z,69.11
2022-08-31T20:46:34.527Z,68.48
2022-08-31T20:49:19.760Z,68.21
2022-08-31T20:51:47.680Z,69.68
2022-08-31T20:54:15.614Z,70.83
2022-08-31T20:56:43.229Z,71.44
2022-08-31T20:59:12.242Z,71.63
2022-08-31T21:01:41.368Z,72.01
2022-08-31T21:04:09.513Z,72.33
2022-08-31T21:06:37.486Z,72.83
2022-08-31T21:09:06.654Z,72.92
2022-08-31T21:11:36.978Z,72.94
2022-08-31T21:14:04.966Z,71.98
2022-08-31T21:16:35.806Z,71.99
2022-08-31T21:19:04.722Z,71.39
2022-08-31T21:21:32.421Z,71.49
2022-08-31T21:24:00.234Z,70.71
2022-08-31T21:26:29.011Z,71.83
2022-08-31T21:28:58.010Z,71.38
2022-08-31T21:31:28.682Z,71.80
2022-08-31T21:34:01.296Z,72.15
2022-08-31T21:36:32.867Z,71.51
2022-08-31T21:39:01.009Z,71.44
2022-08-31T21:41:29.822Z,71.86
2022-08-31T21:43:58.600Z,72.35
2022-08-31T21:46:28.760Z,71.69
2022-08-31T21:48:59.519Z,71.79
2022-08-31T21:51:29.360Z,71.64
2022-08-31T21:53:59.220Z,71.50
2022-08-31T21:56:28.898Z,71.86
2022-08-31T21:58:58.385Z,72.54
2022-08-31T22:01:29.381Z,72.31
2022-08-31T22:04:00.889Z,72.45
2022-08-31T22:06:30.983Z,72.61
2022-08-31T22:09:03.108Z,71.67
2022-08-31T22:11:36.155Z,71.51
2022-08-31T22:14:06.964Z,71.47
2022-08-31T22:16:35.834Z,71.91
2022-08-31T22:19:07.044Z,71.86
2022-08-31T22:21:37.098Z,72.13
2022-08-31T22:24:07.565Z,72.32
2022-08-31T22:26:37.501Z,72.35
2022-08-31T22:29:06.519Z,72.65
2022-08-31T22:31:37.493Z,72.74
2022-08-31T22:34:07.581Z,72.70
2022-08-31T22:36:36.217Z,72.84
2022-08-31T22:39:07.391Z,73.26
2022-08-31T22:41:37.367Z,73.44
2022-08-31T22:44:06.308Z,73.75
2022-08-31T22:46:34.804Z,73.79
2022-08-31T22:49:03.035Z,73.58
2022-08-31T22:51:32.278Z,74.08
2022-08-31T22:54:00.911Z,73.85
2022-08-31T22:56:32.407Z,73.61
2022-08-31T22:59:02.555Z,73.17
2022-08-31T23:01:33.218Z,73.29
2022-08-31T23:04:06.529Z,73.50
2022-08-31T23:06:37.610Z,73.08
2022-08-31T23:09:07.528Z,72.88
2022-08-31T23:11:36.110Z,73.26
2022-08-31T23:14:07.599Z,73.64
2022-08-31T23:16:37.630Z,73.40
2022-08-31T23:19:12.349Z,74.03
2022-08-31T23:21:45.940Z,74.17
2022-08-31T23:24:16.651Z,74.47
2022-08-31T23:26:45.507Z,74.29
2022-08-31T23:29:14.191Z,74.37
2022-08-31T23:31:41.907Z,74.43
2022-08-31T23:34:12.853Z,74.32
2022-08-31T23:36:43.586Z,74.15
2022-08-31T23:39:11.281Z,74.33
2022-08-31T23:41:39.245Z,74.43
2022-08-31T23:44:09.975Z,74.48
2022-08-31T23:46:40.300Z,74.27
2022-08-31T23:49:11.547Z,74.07
2022-08-31T23:51:39.329Z,73.42
2022-08-31T23:54:13.966Z,73.62
2022-08-31T23:56:46.957Z,73.71
2022-08-31T23:59:19.591Z,73.20
